<?xml version="1.0" encoding="UTF-8" standalone="no" ?><gpx xmlns="http://www.topografix.com/GPX/1/1" xmlns:gpxx="http://www.garmin.com/xmlschemas/GpxExtensions/v3" xmlns:wptx1="http://www.garmin.com/xmlschemas/WaypointExtension/v1" xmlns:gpxtpx="http://www.garmin.com/xmlschemas/TrackPointExtension/v1" creator="GuideVTT.com" version="1.1" xmlns:xsi="http://www.w3.org/2001/XMLSchema-instance" xsi:schemaLocation="http://www.topografix.com/GPX/1/1 http://www.topografix.com/GPX/1/1/gpx.xsd http://www.garmin.com/xmlschemas/GpxExtensions/v3 http://www8.garmin.com/xmlschemas/GpxExtensionsv3.xsd http://www.garmin.com/xmlschemas/WaypointExtension/v1 http://www8.garmin.com/xmlschemas/WaypointExtensionv1.xsd http://www.garmin.com/xmlschemas/TrackPointExtension/v1 http://www.garmin.com/xmlschemas/TrackPointExtensionv1.xsd">
<metadata><link href="http://www.garmin.com"><text>Garmin International</text></link><time>2013-06-22T15:13:50Z</time></metadata>
<trk><name>zillebeke.gpx</name><extensions><gpxx:TrackExtension><gpxx:DisplayColor>Cyan</gpxx:DisplayColor></gpxx:TrackExtension></extensions><trkseg>
<trkpt lat="50.83891670" lon="2.92153820"><ele></ele><time>2014-5-30T11:33:6Z</time></trkpt>
<trkpt lat="50.83891790" lon="2.92154240"><ele></ele><time>2014-5-30T11:33:9Z</time></trkpt>
<trkpt lat="50.83891850" lon="2.92154030"><ele></ele><time>2014-5-30T11:33:12Z</time></trkpt>
<trkpt lat="50.83891790" lon="2.92153720"><ele></ele><time>2014-5-30T11:33:15Z</time></trkpt>
<trkpt lat="50.83891680" lon="2.92153410"><ele></ele><time>2014-5-30T11:33:18Z</time></trkpt>
<trkpt lat="50.83891510" lon="2.92153310"><ele></ele><time>2014-5-30T11:33:21Z</time></trkpt>
<trkpt lat="50.83892340" lon="2.92146780"><ele></ele><time>2014-5-30T11:33:24Z</time></trkpt>
<trkpt lat="50.83892100" lon="2.92147860"><ele></ele><time>2014-5-30T11:33:27Z</time></trkpt>
<trkpt lat="50.83891060" lon="2.92148070"><ele></ele><time>2014-5-30T11:33:30Z</time></trkpt>
<trkpt lat="50.83852140" lon="2.92162920"><ele></ele><time>2014-5-30T11:33:33Z</time></trkpt>
<trkpt lat="50.83769290" lon="2.92183630"><ele></ele><time>2014-5-30T11:33:36Z</time></trkpt>
<trkpt lat="50.83689640" lon="2.92205580"><ele></ele><time>2014-5-30T11:33:39Z</time></trkpt>
<trkpt lat="50.83661100" lon="2.92209550"><ele></ele><time>2014-5-30T11:33:42Z</time></trkpt>
<trkpt lat="50.83623330" lon="2.92214260"><ele></ele><time>2014-5-30T11:33:45Z</time></trkpt>
<trkpt lat="50.83623330" lon="2.92214260"><ele></ele><time>2014-5-30T11:33:48Z</time></trkpt>
<trkpt lat="50.83617840" lon="2.92186750"><ele></ele><time>2014-5-30T11:33:51Z</time></trkpt>
<trkpt lat="50.83616430" lon="2.92136410"><ele></ele><time>2014-5-30T11:33:54Z</time></trkpt>
<trkpt lat="50.83615590" lon="2.92106740"><ele></ele><time>2014-5-30T11:33:57Z</time></trkpt>
<trkpt lat="50.83615480" lon="2.92102740"><ele></ele><time>2014-5-30T11:34:0Z</time></trkpt>
<trkpt lat="50.83615480" lon="2.92102740"><ele></ele><time>2014-5-30T11:34:3Z</time></trkpt>
<trkpt lat="50.83615480" lon="2.92102740"><ele></ele><time>2014-5-30T11:34:6Z</time></trkpt>
<trkpt lat="50.83615480" lon="2.92102740"><ele></ele><time>2014-5-30T11:34:9Z</time></trkpt>
<trkpt lat="50.83615480" lon="2.92102740"><ele></ele><time>2014-5-30T11:34:12Z</time></trkpt>
<trkpt lat="50.83615680" lon="2.92109900"><ele></ele><time>2014-5-30T11:34:15Z</time></trkpt>
<trkpt lat="50.83615680" lon="2.92109900"><ele></ele><time>2014-5-30T11:34:18Z</time></trkpt>
<trkpt lat="50.83615680" lon="2.92109900"><ele></ele><time>2014-5-30T11:34:21Z</time></trkpt>
<trkpt lat="50.83615680" lon="2.92109900"><ele></ele><time>2014-5-30T11:34:24Z</time></trkpt>
<trkpt lat="50.83615680" lon="2.92109900"><ele></ele><time>2014-5-30T11:34:27Z</time></trkpt>
<trkpt lat="50.83615680" lon="2.92109900"><ele></ele><time>2014-5-30T11:34:30Z</time></trkpt>
<trkpt lat="50.83615680" lon="2.92109900"><ele></ele><time>2014-5-30T11:34:33Z</time></trkpt>
<trkpt lat="50.83615680" lon="2.92109900"><ele></ele><time>2014-5-30T11:34:36Z</time></trkpt>
<trkpt lat="50.83615430" lon="2.92100880"><ele></ele><time>2014-5-30T11:34:39Z</time></trkpt>
<trkpt lat="50.83615430" lon="2.92100880"><ele></ele><time>2014-5-30T11:34:42Z</time></trkpt>
<trkpt lat="50.83615650" lon="2.92108860"><ele></ele><time>2014-5-30T11:34:45Z</time></trkpt>
<trkpt lat="50.83615650" lon="2.92108860"><ele></ele><time>2014-5-30T11:34:48Z</time></trkpt>
<trkpt lat="50.83661560" lon="2.92124750"><ele></ele><time>2014-5-30T11:34:51Z</time></trkpt>
<trkpt lat="50.83627540" lon="2.92111400"><ele></ele><time>2014-5-30T11:34:54Z</time></trkpt>
<trkpt lat="50.83616320" lon="2.92132610"><ele></ele><time>2014-5-30T11:34:57Z</time></trkpt>
<trkpt lat="50.83618100" lon="2.92195730"><ele></ele><time>2014-5-30T11:35:0Z</time></trkpt>
<trkpt lat="50.83618100" lon="2.92195730"><ele></ele><time>2014-5-30T11:35:3Z</time></trkpt>
<trkpt lat="50.83580500" lon="2.92217680"><ele></ele><time>2014-5-30T11:35:6Z</time></trkpt>
<trkpt lat="50.83512980" lon="2.92222680"><ele></ele><time>2014-5-30T11:35:9Z</time></trkpt>
<trkpt lat="50.83507480" lon="2.92223080"><ele></ele><time>2014-5-30T11:35:12Z</time></trkpt>
<trkpt lat="50.83453740" lon="2.92246070"><ele></ele><time>2014-5-30T11:35:15Z</time></trkpt>
<trkpt lat="50.83438090" lon="2.92225880"><ele></ele><time>2014-5-30T11:35:18Z</time></trkpt>
<trkpt lat="50.83429010" lon="2.92202030"><ele></ele><time>2014-5-30T11:35:21Z</time></trkpt>
<trkpt lat="50.83375310" lon="2.92100590"><ele></ele><time>2014-5-30T11:35:24Z</time></trkpt>
<trkpt lat="50.83365310" lon="2.92077230"><ele></ele><time>2014-5-30T11:35:27Z</time></trkpt>
<trkpt lat="50.83336970" lon="2.92063090"><ele></ele><time>2014-5-30T11:35:30Z</time></trkpt>
<trkpt lat="50.83244470" lon="2.92140710"><ele></ele><time>2014-5-30T11:35:33Z</time></trkpt>
<trkpt lat="50.83235430" lon="2.92148740"><ele></ele><time>2014-5-30T11:35:36Z</time></trkpt>
<trkpt lat="50.83222220" lon="2.92176740"><ele></ele><time>2014-5-30T11:35:39Z</time></trkpt>
<trkpt lat="50.83203250" lon="2.92203040"><ele></ele><time>2014-5-30T11:35:42Z</time></trkpt>
<trkpt lat="50.83168820" lon="2.92196140"><ele></ele><time>2014-5-30T11:35:45Z</time></trkpt>
<trkpt lat="50.83147390" lon="2.92189540"><ele></ele><time>2014-5-30T11:35:48Z</time></trkpt>
<trkpt lat="50.83125110" lon="2.92163370"><ele></ele><time>2014-5-30T11:35:51Z</time></trkpt>
<trkpt lat="50.83078300" lon="2.92180530"><ele></ele><time>2014-5-30T11:35:54Z</time></trkpt>
<trkpt lat="50.83020860" lon="2.92201590"><ele></ele><time>2014-5-30T11:35:57Z</time></trkpt>
<trkpt lat="50.83011250" lon="2.92205110"><ele></ele><time>2014-5-30T11:36:0Z</time></trkpt>
<trkpt lat="50.82921140" lon="2.92234770"><ele></ele><time>2014-5-30T11:36:3Z</time></trkpt>
<trkpt lat="50.82881950" lon="2.92247360"><ele></ele><time>2014-5-30T11:36:6Z</time></trkpt>
<trkpt lat="50.82876210" lon="2.92249200"><ele></ele><time>2014-5-30T11:36:9Z</time></trkpt>
<trkpt lat="50.82858180" lon="2.92207990"><ele></ele><time>2014-5-30T11:36:12Z</time></trkpt>
<trkpt lat="50.82849060" lon="2.92157840"><ele></ele><time>2014-5-30T11:36:15Z</time></trkpt>
<trkpt lat="50.82825440" lon="2.92027970"><ele></ele><time>2014-5-30T11:36:18Z</time></trkpt>
<trkpt lat="50.82809280" lon="2.92013290"><ele></ele><time>2014-5-30T11:36:21Z</time></trkpt>
<trkpt lat="50.82797300" lon="2.92027280"><ele></ele><time>2014-5-30T11:36:24Z</time></trkpt>
<trkpt lat="50.82713100" lon="2.92089920"><ele></ele><time>2014-5-30T11:36:27Z</time></trkpt>
<trkpt lat="50.82644190" lon="2.92126410"><ele></ele><time>2014-5-30T11:36:30Z</time></trkpt>
<trkpt lat="50.82556850" lon="2.92172650"><ele></ele><time>2014-5-30T11:36:33Z</time></trkpt>
<trkpt lat="50.82474190" lon="2.92237900"><ele></ele><time>2014-5-30T11:36:36Z</time></trkpt>
<trkpt lat="50.82388510" lon="2.92313100"><ele></ele><time>2014-5-30T11:36:39Z</time></trkpt>
<trkpt lat="50.82319890" lon="2.92373330"><ele></ele><time>2014-5-30T11:36:42Z</time></trkpt>
<trkpt lat="50.82298470" lon="2.92370980"><ele></ele><time>2014-5-30T11:36:45Z</time></trkpt>
<trkpt lat="50.82200890" lon="2.92273410"><ele></ele><time>2014-5-30T11:36:48Z</time></trkpt>
<trkpt lat="50.82109140" lon="2.92182730"><ele></ele><time>2014-5-30T11:36:51Z</time></trkpt>
<trkpt lat="50.82004810" lon="2.92085920"><ele></ele><time>2014-5-30T11:36:54Z</time></trkpt>
<trkpt lat="50.81945550" lon="2.92023730"><ele></ele><time>2014-5-30T11:36:57Z</time></trkpt>
<trkpt lat="50.81885270" lon="2.91968060"><ele></ele><time>2014-5-30T11:37:0Z</time></trkpt>
<trkpt lat="50.81874770" lon="2.91958600"><ele></ele><time>2014-5-30T11:37:3Z</time></trkpt>
<trkpt lat="50.81859410" lon="2.91944780"><ele></ele><time>2014-5-30T11:37:6Z</time></trkpt>
<trkpt lat="50.81842700" lon="2.91929730"><ele></ele><time>2014-5-30T11:37:9Z</time></trkpt>
<trkpt lat="50.81784450" lon="2.91909830"><ele></ele><time>2014-5-30T11:37:12Z</time></trkpt>
<trkpt lat="50.81743150" lon="2.91904660"><ele></ele><time>2014-5-30T11:37:15Z</time></trkpt>
<trkpt lat="50.81714910" lon="2.91881040"><ele></ele><time>2014-5-30T11:37:18Z</time></trkpt>
<trkpt lat="50.81705400" lon="2.91867210"><ele></ele><time>2014-5-30T11:37:21Z</time></trkpt>
<trkpt lat="50.81691260" lon="2.91846650"><ele></ele><time>2014-5-30T11:37:24Z</time></trkpt>
<trkpt lat="50.81664850" lon="2.91766650"><ele></ele><time>2014-5-30T11:37:27Z</time></trkpt>
<trkpt lat="50.81683030" lon="2.91707770"><ele></ele><time>2014-5-30T11:37:30Z</time></trkpt>
<trkpt lat="50.81690180" lon="2.91697760"><ele></ele><time>2014-5-30T11:37:33Z</time></trkpt>
<trkpt lat="50.81756430" lon="2.91613050"><ele></ele><time>2014-5-30T11:37:36Z</time></trkpt>
<trkpt lat="50.81781860" lon="2.91582160"><ele></ele><time>2014-5-30T11:37:39Z</time></trkpt>
<trkpt lat="50.81798570" lon="2.91561880"><ele></ele><time>2014-5-30T11:37:42Z</time></trkpt>
<trkpt lat="50.81807490" lon="2.91551060"><ele></ele><time>2014-5-30T11:37:45Z</time></trkpt>
<trkpt lat="50.81824540" lon="2.91530350"><ele></ele><time>2014-5-30T11:37:48Z</time></trkpt>
<trkpt lat="50.81833450" lon="2.91519520"><ele></ele><time>2014-5-30T11:37:51Z</time></trkpt>
<trkpt lat="50.81869990" lon="2.91484320"><ele></ele><time>2014-5-30T11:37:54Z</time></trkpt>
<trkpt lat="50.81893010" lon="2.91480380"><ele></ele><time>2014-5-30T11:37:57Z</time></trkpt>
<trkpt lat="50.81921440" lon="2.91388810"><ele></ele><time>2014-5-30T11:38:0Z</time></trkpt>
<trkpt lat="50.81929910" lon="2.91348590"><ele></ele><time>2014-5-30T11:38:3Z</time></trkpt>
<trkpt lat="50.81933520" lon="2.91331450"><ele></ele><time>2014-5-30T11:38:6Z</time></trkpt>
<trkpt lat="50.81942130" lon="2.91305430"><ele></ele><time>2014-5-30T11:38:9Z</time></trkpt>
<trkpt lat="50.81948460" lon="2.91291700"><ele></ele><time>2014-5-30T11:38:12Z</time></trkpt>
<trkpt lat="50.81961090" lon="2.91264350"><ele></ele><time>2014-5-30T11:38:15Z</time></trkpt>
<trkpt lat="50.82002600" lon="2.91200220"><ele></ele><time>2014-5-30T11:38:18Z</time></trkpt>
<trkpt lat="50.82029830" lon="2.91158580"><ele></ele><time>2014-5-30T11:38:21Z</time></trkpt>
<trkpt lat="50.82039610" lon="2.91143730"><ele></ele><time>2014-5-30T11:38:24Z</time></trkpt>
<trkpt lat="50.82097220" lon="2.91057320"><ele></ele><time>2014-5-30T11:38:27Z</time></trkpt>
<trkpt lat="50.82103540" lon="2.91047850"><ele></ele><time>2014-5-30T11:38:30Z</time></trkpt>
<trkpt lat="50.82095980" lon="2.91034350"><ele></ele><time>2014-5-30T11:38:33Z</time></trkpt>
<trkpt lat="50.82045330" lon="2.90947950"><ele></ele><time>2014-5-30T11:38:36Z</time></trkpt>
<trkpt lat="50.82041020" lon="2.90940590"><ele></ele><time>2014-5-30T11:38:39Z</time></trkpt>
<trkpt lat="50.81988620" lon="2.90816480"><ele></ele><time>2014-5-30T11:38:42Z</time></trkpt>
<trkpt lat="50.81936380" lon="2.90680420"><ele></ele><time>2014-5-30T11:38:45Z</time></trkpt>
<trkpt lat="50.81939720" lon="2.90636130"><ele></ele><time>2014-5-30T11:38:48Z</time></trkpt>
<trkpt lat="50.81952350" lon="2.90622550"><ele></ele><time>2014-5-30T11:38:51Z</time></trkpt>
<trkpt lat="50.82034340" lon="2.90573350"><ele></ele><time>2014-5-30T11:38:54Z</time></trkpt>
<trkpt lat="50.82071390" lon="2.90551130"><ele></ele><time>2014-5-30T11:38:57Z</time></trkpt>
<trkpt lat="50.82131550" lon="2.90534640"><ele></ele><time>2014-5-30T11:39:0Z</time></trkpt>
<trkpt lat="50.82168740" lon="2.90524940"><ele></ele><time>2014-5-30T11:39:3Z</time></trkpt>
<trkpt lat="50.82233720" lon="2.90438150"><ele></ele><time>2014-5-30T11:39:6Z</time></trkpt>
<trkpt lat="50.82238740" lon="2.90432060"><ele></ele><time>2014-5-30T11:39:9Z</time></trkpt>
<trkpt lat="50.82207240" lon="2.90351850"><ele></ele><time>2014-5-30T11:39:12Z</time></trkpt>
<trkpt lat="50.82203790" lon="2.90342290"><ele></ele><time>2014-5-30T11:39:15Z</time></trkpt>
<trkpt lat="50.82136680" lon="2.90218120"><ele></ele><time>2014-5-30T11:39:18Z</time></trkpt>
<trkpt lat="50.82037060" lon="2.90042330"><ele></ele><time>2014-5-30T11:39:21Z</time></trkpt>
<trkpt lat="50.81988740" lon="2.89957050"><ele></ele><time>2014-5-30T11:39:24Z</time></trkpt>
<trkpt lat="50.81952130" lon="2.89918620"><ele></ele><time>2014-5-30T11:39:27Z</time></trkpt>
<trkpt lat="50.81925780" lon="2.89897560"><ele></ele><time>2014-5-30T11:39:30Z</time></trkpt>
<trkpt lat="50.81885920" lon="2.89884010"><ele></ele><time>2014-5-30T11:39:33Z</time></trkpt>
<trkpt lat="50.81867510" lon="2.89981250"><ele></ele><time>2014-5-30T11:39:36Z</time></trkpt>
<trkpt lat="50.81851450" lon="2.89987250"><ele></ele><time>2014-5-30T11:39:39Z</time></trkpt>
<trkpt lat="50.81810670" lon="2.89946790"><ele></ele><time>2014-5-30T11:39:42Z</time></trkpt>
<trkpt lat="50.81788590" lon="2.89949400"><ele></ele><time>2014-5-30T11:39:45Z</time></trkpt>
<trkpt lat="50.81747870" lon="2.90025680"><ele></ele><time>2014-5-30T11:39:48Z</time></trkpt>
<trkpt lat="50.81734470" lon="2.90031140"><ele></ele><time>2014-5-30T11:39:51Z</time></trkpt>
<trkpt lat="50.81725690" lon="2.90020340"><ele></ele><time>2014-5-30T11:39:54Z</time></trkpt>
<trkpt lat="50.81662280" lon="2.89945390"><ele></ele><time>2014-5-30T11:39:57Z</time></trkpt>
<trkpt lat="50.81628790" lon="2.89908930"><ele></ele><time>2014-5-30T11:40:0Z</time></trkpt>
<trkpt lat="50.81615510" lon="2.89926580"><ele></ele><time>2014-5-30T11:40:3Z</time></trkpt>
<trkpt lat="50.81577820" lon="2.90036180"><ele></ele><time>2014-5-30T11:40:6Z</time></trkpt>
<trkpt lat="50.81523320" lon="2.90183040"><ele></ele><time>2014-5-30T11:40:9Z</time></trkpt>
<trkpt lat="50.81472750" lon="2.90319310"><ele></ele><time>2014-5-30T11:40:12Z</time></trkpt>
<trkpt lat="50.81455900" lon="2.90373840"><ele></ele><time>2014-5-30T11:40:15Z</time></trkpt>
<trkpt lat="50.81459150" lon="2.90523330"><ele></ele><time>2014-5-30T11:40:18Z</time></trkpt>
<trkpt lat="50.81448480" lon="2.90673080"><ele></ele><time>2014-5-30T11:40:21Z</time></trkpt>
<trkpt lat="50.81440510" lon="2.90704950"><ele></ele><time>2014-5-30T11:40:24Z</time></trkpt>
<trkpt lat="50.81418520" lon="2.90738810"><ele></ele><time>2014-5-30T11:40:27Z</time></trkpt>
<trkpt lat="50.81352590" lon="2.90775730"><ele></ele><time>2014-5-30T11:40:30Z</time></trkpt>
<trkpt lat="50.81311920" lon="2.90792600"><ele></ele><time>2014-5-30T11:40:33Z</time></trkpt>
<trkpt lat="50.81284210" lon="2.90797210"><ele></ele><time>2014-5-30T11:40:36Z</time></trkpt>
<trkpt lat="50.81270380" lon="2.90799530"><ele></ele><time>2014-5-30T11:40:39Z</time></trkpt>
<trkpt lat="50.81190400" lon="2.90811040"><ele></ele><time>2014-5-30T11:40:42Z</time></trkpt>
<trkpt lat="50.81156050" lon="2.90815740"><ele></ele><time>2014-5-30T11:40:45Z</time></trkpt>
<trkpt lat="50.81107010" lon="2.90848030"><ele></ele><time>2014-5-30T11:40:48Z</time></trkpt>
<trkpt lat="50.81095120" lon="2.90855950"><ele></ele><time>2014-5-30T11:40:51Z</time></trkpt>
<trkpt lat="50.81055500" lon="2.90882370"><ele></ele><time>2014-5-30T11:40:54Z</time></trkpt>
<trkpt lat="50.81026090" lon="2.90901970"><ele></ele><time>2014-5-30T11:40:57Z</time></trkpt>
<trkpt lat="50.81008000" lon="2.90914030"><ele></ele><time>2014-5-30T11:41:0Z</time></trkpt>
<trkpt lat="50.80950410" lon="2.90952420"><ele></ele><time>2014-5-30T11:41:3Z</time></trkpt>
<trkpt lat="50.80866870" lon="2.91008120"><ele></ele><time>2014-5-30T11:41:6Z</time></trkpt>
<trkpt lat="50.80833690" lon="2.91030250"><ele></ele><time>2014-5-30T11:41:9Z</time></trkpt>
<trkpt lat="50.80737050" lon="2.91094670"><ele></ele><time>2014-5-30T11:41:12Z</time></trkpt>
<trkpt lat="50.80731740" lon="2.91098220"><ele></ele><time>2014-5-30T11:41:15Z</time></trkpt>
<trkpt lat="50.80722460" lon="2.91120300"><ele></ele><time>2014-5-30T11:41:18Z</time></trkpt>
<trkpt lat="50.80772080" lon="2.91248500"><ele></ele><time>2014-5-30T11:41:21Z</time></trkpt>
<trkpt lat="50.80820560" lon="2.91373730"><ele></ele><time>2014-5-30T11:41:24Z</time></trkpt>
<trkpt lat="50.80820560" lon="2.91412350"><ele></ele><time>2014-5-30T11:41:27Z</time></trkpt>
<trkpt lat="50.80880000" lon="2.91474970"><ele></ele><time>2014-5-30T11:41:30Z</time></trkpt>
<trkpt lat="50.80986910" lon="2.91587610"><ele></ele><time>2014-5-30T11:41:33Z</time></trkpt>
<trkpt lat="50.81072020" lon="2.91676700"><ele></ele><time>2014-5-30T11:41:36Z</time></trkpt>
<trkpt lat="50.81143770" lon="2.91750510"><ele></ele><time>2014-5-30T11:41:39Z</time></trkpt>
<trkpt lat="50.81231860" lon="2.91843290"><ele></ele><time>2014-5-30T11:41:42Z</time></trkpt>
<trkpt lat="50.81241820" lon="2.91850770"><ele></ele><time>2014-5-30T11:41:45Z</time></trkpt>
<trkpt lat="50.81257410" lon="2.91852260"><ele></ele><time>2014-5-30T11:41:48Z</time></trkpt>
<trkpt lat="50.81251000" lon="2.91877950"><ele></ele><time>2014-5-30T11:41:51Z</time></trkpt>
<trkpt lat="50.81229680" lon="2.91955970"><ele></ele><time>2014-5-30T11:41:54Z</time></trkpt>
<trkpt lat="50.81194780" lon="2.92080610"><ele></ele><time>2014-5-30T11:41:57Z</time></trkpt>
<trkpt lat="50.81152650" lon="2.92262970"><ele></ele><time>2014-5-30T11:42:0Z</time></trkpt>
<trkpt lat="50.81133670" lon="2.92423050"><ele></ele><time>2014-5-30T11:42:3Z</time></trkpt>
<trkpt lat="50.81133360" lon="2.92434360"><ele></ele><time>2014-5-30T11:42:6Z</time></trkpt>
<trkpt lat="50.81130480" lon="2.92537590"><ele></ele><time>2014-5-30T11:42:9Z</time></trkpt>
<trkpt lat="50.81130090" lon="2.92575290"><ele></ele><time>2014-5-30T11:42:12Z</time></trkpt>
<trkpt lat="50.81132630" lon="2.92595210"><ele></ele><time>2014-5-30T11:42:15Z</time></trkpt>
<trkpt lat="50.81135980" lon="2.92621440"><ele></ele><time>2014-5-30T11:42:18Z</time></trkpt>
<trkpt lat="50.81152130" lon="2.92747970"><ele></ele><time>2014-5-30T11:42:21Z</time></trkpt>
<trkpt lat="50.81158720" lon="2.92799580"><ele></ele><time>2014-5-30T11:42:24Z</time></trkpt>
<trkpt lat="50.81162940" lon="2.92832630"><ele></ele><time>2014-5-30T11:42:27Z</time></trkpt>
<trkpt lat="50.81168680" lon="2.92877590"><ele></ele><time>2014-5-30T11:42:30Z</time></trkpt>
<trkpt lat="50.81171020" lon="2.92895970"><ele></ele><time>2014-5-30T11:42:33Z</time></trkpt>
<trkpt lat="50.81177130" lon="2.92943760"><ele></ele><time>2014-5-30T11:42:36Z</time></trkpt>
<trkpt lat="50.81188340" lon="2.93017790"><ele></ele><time>2014-5-30T11:42:39Z</time></trkpt>
<trkpt lat="50.81193710" lon="2.93049690"><ele></ele><time>2014-5-30T11:42:42Z</time></trkpt>
<trkpt lat="50.81214630" lon="2.93173860"><ele></ele><time>2014-5-30T11:42:45Z</time></trkpt>
<trkpt lat="50.81223780" lon="2.93228210"><ele></ele><time>2014-5-30T11:42:48Z</time></trkpt>
<trkpt lat="50.81225470" lon="2.93238200"><ele></ele><time>2014-5-30T11:42:51Z</time></trkpt>
<trkpt lat="50.81250530" lon="2.93387850"><ele></ele><time>2014-5-30T11:42:54Z</time></trkpt>
<trkpt lat="50.81270380" lon="2.93521920"><ele></ele><time>2014-5-30T11:42:57Z</time></trkpt>
<trkpt lat="50.81281730" lon="2.93585530"><ele></ele><time>2014-5-30T11:43:0Z</time></trkpt>
<trkpt lat="50.81287050" lon="2.93623780"><ele></ele><time>2014-5-30T11:43:3Z</time></trkpt>
<trkpt lat="50.81262680" lon="2.93640830"><ele></ele><time>2014-5-30T11:43:6Z</time></trkpt>
<trkpt lat="50.81150410" lon="2.93713180"><ele></ele><time>2014-5-30T11:43:9Z</time></trkpt>
<trkpt lat="50.81044320" lon="2.93765350"><ele></ele><time>2014-5-30T11:43:12Z</time></trkpt>
<trkpt lat="50.81031740" lon="2.93769550"><ele></ele><time>2014-5-30T11:43:15Z</time></trkpt>
<trkpt lat="50.81018560" lon="2.93763440"><ele></ele><time>2014-5-30T11:43:18Z</time></trkpt>
<trkpt lat="50.81011880" lon="2.93746830"><ele></ele><time>2014-5-30T11:43:21Z</time></trkpt>
<trkpt lat="50.80979710" lon="2.93667850"><ele></ele><time>2014-5-30T11:43:24Z</time></trkpt>
<trkpt lat="50.80974490" lon="2.93655050"><ele></ele><time>2014-5-30T11:43:27Z</time></trkpt>
<trkpt lat="50.80963190" lon="2.93645030"><ele></ele><time>2014-5-30T11:43:30Z</time></trkpt>
<trkpt lat="50.80950560" lon="2.93653610"><ele></ele><time>2014-5-30T11:43:33Z</time></trkpt>
<trkpt lat="50.80894720" lon="2.93702250"><ele></ele><time>2014-5-30T11:43:36Z</time></trkpt>
<trkpt lat="50.80881040" lon="2.93696900"><ele></ele><time>2014-5-30T11:43:39Z</time></trkpt>
<trkpt lat="50.80871720" lon="2.93679000"><ele></ele><time>2014-5-30T11:43:42Z</time></trkpt>
<trkpt lat="50.80840930" lon="2.93702820"><ele></ele><time>2014-5-30T11:43:45Z</time></trkpt>
<trkpt lat="50.80785680" lon="2.93745950"><ele></ele><time>2014-5-30T11:43:48Z</time></trkpt>
<trkpt lat="50.80774540" lon="2.93754370"><ele></ele><time>2014-5-30T11:43:51Z</time></trkpt>
<trkpt lat="50.80773230" lon="2.93764660"><ele></ele><time>2014-5-30T11:43:54Z</time></trkpt>
<trkpt lat="50.80774180" lon="2.93798580"><ele></ele><time>2014-5-30T11:43:57Z</time></trkpt>
<trkpt lat="50.80768300" lon="2.93822570"><ele></ele><time>2014-5-30T11:44:0Z</time></trkpt>
<trkpt lat="50.80773600" lon="2.93845850"><ele></ele><time>2014-5-30T11:44:3Z</time></trkpt>
<trkpt lat="50.80785300" lon="2.93897350"><ele></ele><time>2014-5-30T11:44:6Z</time></trkpt>
<trkpt lat="50.80775700" lon="2.93904380"><ele></ele><time>2014-5-30T11:44:9Z</time></trkpt>
<trkpt lat="50.80711260" lon="2.93922280"><ele></ele><time>2014-5-30T11:44:12Z</time></trkpt>
<trkpt lat="50.80680460" lon="2.93901860"><ele></ele><time>2014-5-30T11:44:15Z</time></trkpt>
<trkpt lat="50.80645700" lon="2.93861760"><ele></ele><time>2014-5-30T11:44:18Z</time></trkpt>
<trkpt lat="50.80607010" lon="2.93867140"><ele></ele><time>2014-5-30T11:44:21Z</time></trkpt>
<trkpt lat="50.80546810" lon="2.93919500"><ele></ele><time>2014-5-30T11:44:24Z</time></trkpt>
<trkpt lat="50.80530450" lon="2.93962870"><ele></ele><time>2014-5-30T11:44:27Z</time></trkpt>
<trkpt lat="50.80527990" lon="2.93993050"><ele></ele><time>2014-5-30T11:44:30Z</time></trkpt>
<trkpt lat="50.80524010" lon="2.94041710"><ele></ele><time>2014-5-30T11:44:33Z</time></trkpt>
<trkpt lat="50.80504540" lon="2.94279870"><ele></ele><time>2014-5-30T11:44:36Z</time></trkpt>
<trkpt lat="50.80488710" lon="2.94473420"><ele></ele><time>2014-5-30T11:44:39Z</time></trkpt>
<trkpt lat="50.80476630" lon="2.94663470"><ele></ele><time>2014-5-30T11:44:42Z</time></trkpt>
<trkpt lat="50.80453820" lon="2.94682400"><ele></ele><time>2014-5-30T11:44:45Z</time></trkpt>
<trkpt lat="50.80353860" lon="2.94791870"><ele></ele><time>2014-5-30T11:44:48Z</time></trkpt>
<trkpt lat="50.80254100" lon="2.94901140"><ele></ele><time>2014-5-30T11:44:51Z</time></trkpt>
<trkpt lat="50.80159450" lon="2.95012120"><ele></ele><time>2014-5-30T11:44:54Z</time></trkpt>
<trkpt lat="50.80066870" lon="2.95115810"><ele></ele><time>2014-5-30T11:44:57Z</time></trkpt>
<trkpt lat="50.80051860" lon="2.95132030"><ele></ele><time>2014-5-30T11:45:0Z</time></trkpt>
<trkpt lat="50.79993510" lon="2.95195110"><ele></ele><time>2014-5-30T11:45:3Z</time></trkpt>
<trkpt lat="50.79970260" lon="2.95213400"><ele></ele><time>2014-5-30T11:45:6Z</time></trkpt>
<trkpt lat="50.79951590" lon="2.95234380"><ele></ele><time>2014-5-30T11:45:9Z</time></trkpt>
<trkpt lat="50.79947420" lon="2.95241690"><ele></ele><time>2014-5-30T11:45:12Z</time></trkpt>
<trkpt lat="50.79939500" lon="2.95254700"><ele></ele><time>2014-5-30T11:45:15Z</time></trkpt>
<trkpt lat="50.79917850" lon="2.95278600"><ele></ele><time>2014-5-30T11:45:18Z</time></trkpt>
<trkpt lat="50.79839170" lon="2.95365480"><ele></ele><time>2014-5-30T11:45:21Z</time></trkpt>
<trkpt lat="50.79822430" lon="2.95383980"><ele></ele><time>2014-5-30T11:45:24Z</time></trkpt>
<trkpt lat="50.79816680" lon="2.95390310"><ele></ele><time>2014-5-30T11:45:27Z</time></trkpt>
<trkpt lat="50.79805100" lon="2.95403100"><ele></ele><time>2014-5-30T11:45:30Z</time></trkpt>
<trkpt lat="50.79739390" lon="2.95475650"><ele></ele><time>2014-5-30T11:45:33Z</time></trkpt>
<trkpt lat="50.79736990" lon="2.95478300"><ele></ele><time>2014-5-30T11:45:36Z</time></trkpt>
<trkpt lat="50.79734640" lon="2.95479310"><ele></ele><time>2014-5-30T11:45:39Z</time></trkpt>
<trkpt lat="50.79734640" lon="2.95479310"><ele></ele><time>2014-5-30T11:45:42Z</time></trkpt>
<trkpt lat="50.79735400" lon="2.95485230"><ele></ele><time>2014-5-30T11:45:45Z</time></trkpt>
<trkpt lat="50.79716960" lon="2.95500780"><ele></ele><time>2014-5-30T11:45:48Z</time></trkpt>
<trkpt lat="50.79704520" lon="2.95514740"><ele></ele><time>2014-5-30T11:45:51Z</time></trkpt>
<trkpt lat="50.79631530" lon="2.95596730"><ele></ele><time>2014-5-30T11:45:54Z</time></trkpt>
<trkpt lat="50.79559600" lon="2.95677530"><ele></ele><time>2014-5-30T11:45:57Z</time></trkpt>
<trkpt lat="50.79480570" lon="2.95766300"><ele></ele><time>2014-5-30T11:46:0Z</time></trkpt>
<trkpt lat="50.79470500" lon="2.95777620"><ele></ele><time>2014-5-30T11:46:3Z</time></trkpt>
<trkpt lat="50.79412700" lon="2.95842640"><ele></ele><time>2014-5-30T11:46:6Z</time></trkpt>
<trkpt lat="50.79391500" lon="2.95866710"><ele></ele><time>2014-5-30T11:46:9Z</time></trkpt>
<trkpt lat="50.79376190" lon="2.95884110"><ele></ele><time>2014-5-30T11:46:12Z</time></trkpt>
<trkpt lat="50.79346070" lon="2.95918310"><ele></ele><time>2014-5-30T11:46:15Z</time></trkpt>
<trkpt lat="50.79337680" lon="2.95927840"><ele></ele><time>2014-5-30T11:46:18Z</time></trkpt>
<trkpt lat="50.79285910" lon="2.95986630"><ele></ele><time>2014-5-30T11:46:21Z</time></trkpt>
<trkpt lat="50.79271660" lon="2.96002800"><ele></ele><time>2014-5-30T11:46:24Z</time></trkpt>
<trkpt lat="50.79258240" lon="2.96018040"><ele></ele><time>2014-5-30T11:46:27Z</time></trkpt>
<trkpt lat="50.79233430" lon="2.96046210"><ele></ele><time>2014-5-30T11:46:30Z</time></trkpt>
<trkpt lat="50.79225280" lon="2.96055480"><ele></ele><time>2014-5-30T11:46:33Z</time></trkpt>
<trkpt lat="50.79205500" lon="2.96077930"><ele></ele><time>2014-5-30T11:46:36Z</time></trkpt>
<trkpt lat="50.79195070" lon="2.96089760"><ele></ele><time>2014-5-30T11:46:39Z</time></trkpt>
<trkpt lat="50.79181780" lon="2.96104860"><ele></ele><time>2014-5-30T11:46:42Z</time></trkpt>
<trkpt lat="50.79148610" lon="2.96142690"><ele></ele><time>2014-5-30T11:46:45Z</time></trkpt>
<trkpt lat="50.79117370" lon="2.96154500"><ele></ele><time>2014-5-30T11:46:48Z</time></trkpt>
<trkpt lat="50.79110970" lon="2.96183630"><ele></ele><time>2014-5-30T11:46:51Z</time></trkpt>
<trkpt lat="50.79064500" lon="2.96233190"><ele></ele><time>2014-5-30T11:46:54Z</time></trkpt>
<trkpt lat="50.79046500" lon="2.96252400"><ele></ele><time>2014-5-30T11:46:57Z</time></trkpt>
<trkpt lat="50.79033510" lon="2.96266250"><ele></ele><time>2014-5-30T11:47:0Z</time></trkpt>
<trkpt lat="50.79024440" lon="2.96275920"><ele></ele><time>2014-5-30T11:47:3Z</time></trkpt>
<trkpt lat="50.78963080" lon="2.96341380"><ele></ele><time>2014-5-30T11:47:6Z</time></trkpt>
<trkpt lat="50.78902950" lon="2.96405510"><ele></ele><time>2014-5-30T11:47:9Z</time></trkpt>
<trkpt lat="50.78847010" lon="2.96465180"><ele></ele><time>2014-5-30T11:47:12Z</time></trkpt>
<trkpt lat="50.78837800" lon="2.96475000"><ele></ele><time>2014-5-30T11:47:15Z</time></trkpt>
<trkpt lat="50.78770600" lon="2.96546680"><ele></ele><time>2014-5-30T11:47:18Z</time></trkpt>
<trkpt lat="50.78710320" lon="2.96610980"><ele></ele><time>2014-5-30T11:47:21Z</time></trkpt>
<trkpt lat="50.78694870" lon="2.96627460"><ele></ele><time>2014-5-30T11:47:24Z</time></trkpt>
<trkpt lat="50.78687120" lon="2.96658570"><ele></ele><time>2014-5-30T11:47:27Z</time></trkpt>
<trkpt lat="50.78683760" lon="2.96803160"><ele></ele><time>2014-5-30T11:47:30Z</time></trkpt>
<trkpt lat="50.78683520" lon="2.96813780"><ele></ele><time>2014-5-30T11:47:33Z</time></trkpt>
<trkpt lat="50.78686230" lon="2.96835390"><ele></ele><time>2014-5-30T11:47:36Z</time></trkpt>
<trkpt lat="50.78721770" lon="2.96938930"><ele></ele><time>2014-5-30T11:47:39Z</time></trkpt>
<trkpt lat="50.78743460" lon="2.96991350"><ele></ele><time>2014-5-30T11:47:42Z</time></trkpt>
<trkpt lat="50.78777040" lon="2.96973890"><ele></ele><time>2014-5-30T11:47:45Z</time></trkpt>
<trkpt lat="50.78790390" lon="2.96966960"><ele></ele><time>2014-5-30T11:47:48Z</time></trkpt>
<trkpt lat="50.78832990" lon="2.96944800"><ele></ele><time>2014-5-30T11:47:51Z</time></trkpt>
<trkpt lat="50.78933420" lon="2.96871680"><ele></ele><time>2014-5-30T11:47:54Z</time></trkpt>
<trkpt lat="50.78945160" lon="2.96862600"><ele></ele><time>2014-5-30T11:47:57Z</time></trkpt>
<trkpt lat="50.78973610" lon="2.96840470"><ele></ele><time>2014-5-30T11:48:0Z</time></trkpt>
<trkpt lat="50.78990750" lon="2.96851520"><ele></ele><time>2014-5-30T11:48:3Z</time></trkpt>
<trkpt lat="50.79038330" lon="2.97007500"><ele></ele><time>2014-5-30T11:48:6Z</time></trkpt>
<trkpt lat="50.79084970" lon="2.97157050"><ele></ele><time>2014-5-30T11:48:9Z</time></trkpt>
<trkpt lat="50.79108240" lon="2.97231670"><ele></ele><time>2014-5-30T11:48:12Z</time></trkpt>
<trkpt lat="50.79099340" lon="2.97257730"><ele></ele><time>2014-5-30T11:48:15Z</time></trkpt>
<trkpt lat="50.79093860" lon="2.97263200"><ele></ele><time>2014-5-30T11:48:18Z</time></trkpt>
<trkpt lat="50.79089120" lon="2.97319960"><ele></ele><time>2014-5-30T11:48:21Z</time></trkpt>
<trkpt lat="50.79164250" lon="2.97484530"><ele></ele><time>2014-5-30T11:48:24Z</time></trkpt>
<trkpt lat="50.79167410" lon="2.97491470"><ele></ele><time>2014-5-30T11:48:27Z</time></trkpt>
<trkpt lat="50.79156310" lon="2.97512660"><ele></ele><time>2014-5-30T11:48:30Z</time></trkpt>
<trkpt lat="50.79076610" lon="2.97611680"><ele></ele><time>2014-5-30T11:48:33Z</time></trkpt>
<trkpt lat="50.79048190" lon="2.97646990"><ele></ele><time>2014-5-30T11:48:36Z</time></trkpt>
<trkpt lat="50.79019250" lon="2.97715400"><ele></ele><time>2014-5-30T11:48:39Z</time></trkpt>
<trkpt lat="50.79015400" lon="2.97724830"><ele></ele><time>2014-5-30T11:48:42Z</time></trkpt>
<trkpt lat="50.78992610" lon="2.97780790"><ele></ele><time>2014-5-30T11:48:45Z</time></trkpt>
<trkpt lat="50.78988190" lon="2.97826700"><ele></ele><time>2014-5-30T11:48:48Z</time></trkpt>
<trkpt lat="50.78972950" lon="2.97940000"><ele></ele><time>2014-5-30T11:48:51Z</time></trkpt>
<trkpt lat="50.78968010" lon="2.97949860"><ele></ele><time>2014-5-30T11:48:54Z</time></trkpt>
<trkpt lat="50.78900340" lon="2.98098980"><ele></ele><time>2014-5-30T11:48:57Z</time></trkpt>
<trkpt lat="50.78881020" lon="2.98171630"><ele></ele><time>2014-5-30T11:49:0Z</time></trkpt>
<trkpt lat="50.78855930" lon="2.98254840"><ele></ele><time>2014-5-30T11:49:3Z</time></trkpt>
<trkpt lat="50.78831090" lon="2.98393090"><ele></ele><time>2014-5-30T11:49:6Z</time></trkpt>
<trkpt lat="50.78827460" lon="2.98406000"><ele></ele><time>2014-5-30T11:49:9Z</time></trkpt>
<trkpt lat="50.78804020" lon="2.98441170"><ele></ele><time>2014-5-30T11:49:12Z</time></trkpt>
<trkpt lat="50.78781550" lon="2.98474870"><ele></ele><time>2014-5-30T11:49:15Z</time></trkpt>
<trkpt lat="50.78761200" lon="2.98584190"><ele></ele><time>2014-5-30T11:49:18Z</time></trkpt>
<trkpt lat="50.78740600" lon="2.98637850"><ele></ele><time>2014-5-30T11:49:21Z</time></trkpt>
<trkpt lat="50.78720010" lon="2.98759920"><ele></ele><time>2014-5-30T11:49:24Z</time></trkpt>
<trkpt lat="50.78755020" lon="2.98900990"><ele></ele><time>2014-5-30T11:49:27Z</time></trkpt>
<trkpt lat="50.78763880" lon="2.98958250"><ele></ele><time>2014-5-30T11:49:30Z</time></trkpt>
<trkpt lat="50.78744750" lon="2.99034790"><ele></ele><time>2014-5-30T11:49:33Z</time></trkpt>
<trkpt lat="50.78742270" lon="2.99091410"><ele></ele><time>2014-5-30T11:49:36Z</time></trkpt>
<trkpt lat="50.78770250" lon="2.99144080"><ele></ele><time>2014-5-30T11:49:39Z</time></trkpt>
<trkpt lat="50.78785640" lon="2.99153550"><ele></ele><time>2014-5-30T11:49:42Z</time></trkpt>
<trkpt lat="50.78839440" lon="2.99226070"><ele></ele><time>2014-5-30T11:49:45Z</time></trkpt>
<trkpt lat="50.78863530" lon="2.99352760"><ele></ele><time>2014-5-30T11:49:48Z</time></trkpt>
<trkpt lat="50.78889790" lon="2.99384470"><ele></ele><time>2014-5-30T11:49:51Z</time></trkpt>
<trkpt lat="50.78900950" lon="2.99385870"><ele></ele><time>2014-5-30T11:49:54Z</time></trkpt>
<trkpt lat="50.78926850" lon="2.99373730"><ele></ele><time>2014-5-30T11:49:57Z</time></trkpt>
<trkpt lat="50.78934020" lon="2.99370140"><ele></ele><time>2014-5-30T11:50:0Z</time></trkpt>
<trkpt lat="50.79021930" lon="2.99270500"><ele></ele><time>2014-5-30T11:50:3Z</time></trkpt>
<trkpt lat="50.79114960" lon="2.99161190"><ele></ele><time>2014-5-30T11:50:6Z</time></trkpt>
<trkpt lat="50.79185230" lon="2.99074540"><ele></ele><time>2014-5-30T11:50:9Z</time></trkpt>
<trkpt lat="50.79229340" lon="2.99016980"><ele></ele><time>2014-5-30T11:50:12Z</time></trkpt>
<trkpt lat="50.79264270" lon="2.98985540"><ele></ele><time>2014-5-30T11:50:15Z</time></trkpt>
<trkpt lat="50.79345780" lon="2.98912170"><ele></ele><time>2014-5-30T11:50:18Z</time></trkpt>
<trkpt lat="50.79375460" lon="2.98918410"><ele></ele><time>2014-5-30T11:50:21Z</time></trkpt>
<trkpt lat="50.79467080" lon="2.98966730"><ele></ele><time>2014-5-30T11:50:24Z</time></trkpt>
<trkpt lat="50.79474390" lon="2.98969030"><ele></ele><time>2014-5-30T11:50:27Z</time></trkpt>
<trkpt lat="50.79488520" lon="2.98973490"><ele></ele><time>2014-5-30T11:50:30Z</time></trkpt>
<trkpt lat="50.79525800" lon="2.99069020"><ele></ele><time>2014-5-30T11:50:33Z</time></trkpt>
<trkpt lat="50.79530740" lon="2.99079600"><ele></ele><time>2014-5-30T11:50:36Z</time></trkpt>
<trkpt lat="50.79558220" lon="2.99106220"><ele></ele><time>2014-5-30T11:50:39Z</time></trkpt>
<trkpt lat="50.79586050" lon="2.99126460"><ele></ele><time>2014-5-30T11:50:42Z</time></trkpt>
<trkpt lat="50.79612680" lon="2.99126160"><ele></ele><time>2014-5-30T11:50:45Z</time></trkpt>
<trkpt lat="50.79627450" lon="2.99124680"><ele></ele><time>2014-5-30T11:50:48Z</time></trkpt>
<trkpt lat="50.79649620" lon="2.99146390"><ele></ele><time>2014-5-30T11:50:51Z</time></trkpt>
<trkpt lat="50.79660890" lon="2.99177400"><ele></ele><time>2014-5-30T11:50:54Z</time></trkpt>
<trkpt lat="50.79667390" lon="2.99221570"><ele></ele><time>2014-5-30T11:50:57Z</time></trkpt>
<trkpt lat="50.79680400" lon="2.99261840"><ele></ele><time>2014-5-30T11:51:0Z</time></trkpt>
<trkpt lat="50.79708030" lon="2.99310200"><ele></ele><time>2014-5-30T11:51:3Z</time></trkpt>
<trkpt lat="50.79726330" lon="2.99340120"><ele></ele><time>2014-5-30T11:51:6Z</time></trkpt>
<trkpt lat="50.79805760" lon="2.99450930"><ele></ele><time>2014-5-30T11:51:9Z</time></trkpt>
<trkpt lat="50.79829740" lon="2.99500920"><ele></ele><time>2014-5-30T11:51:12Z</time></trkpt>
<trkpt lat="50.79840250" lon="2.99545620"><ele></ele><time>2014-5-30T11:51:15Z</time></trkpt>
<trkpt lat="50.79863450" lon="2.99539530"><ele></ele><time>2014-5-30T11:51:18Z</time></trkpt>
<trkpt lat="50.79871800" lon="2.99534090"><ele></ele><time>2014-5-30T11:51:21Z</time></trkpt>
<trkpt lat="50.79921960" lon="2.99501480"><ele></ele><time>2014-5-30T11:51:24Z</time></trkpt>
<trkpt lat="50.79946440" lon="2.99518170"><ele></ele><time>2014-5-30T11:51:27Z</time></trkpt>
<trkpt lat="50.80001880" lon="2.99579770"><ele></ele><time>2014-5-30T11:51:30Z</time></trkpt>
<trkpt lat="50.80020520" lon="2.99569260"><ele></ele><time>2014-5-30T11:51:33Z</time></trkpt>
<trkpt lat="50.80048620" lon="2.99543320"><ele></ele><time>2014-5-30T11:51:36Z</time></trkpt>
<trkpt lat="50.80070150" lon="2.99557390"><ele></ele><time>2014-5-30T11:51:39Z</time></trkpt>
<trkpt lat="50.80084310" lon="2.99596590"><ele></ele><time>2014-5-30T11:51:42Z</time></trkpt>
<trkpt lat="50.80111590" lon="2.99672140"><ele></ele><time>2014-5-30T11:51:45Z</time></trkpt>
<trkpt lat="50.80140360" lon="2.99665060"><ele></ele><time>2014-5-30T11:51:48Z</time></trkpt>
<trkpt lat="50.80222590" lon="2.99586030"><ele></ele><time>2014-5-30T11:51:51Z</time></trkpt>
<trkpt lat="50.80316790" lon="2.99471990"><ele></ele><time>2014-5-30T11:51:54Z</time></trkpt>
<trkpt lat="50.80398930" lon="2.99342620"><ele></ele><time>2014-5-30T11:51:57Z</time></trkpt>
<trkpt lat="50.80403760" lon="2.99335010"><ele></ele><time>2014-5-30T11:52:0Z</time></trkpt>
<trkpt lat="50.80475810" lon="2.99221530"><ele></ele><time>2014-5-30T11:52:3Z</time></trkpt>
<trkpt lat="50.80493190" lon="2.99231560"><ele></ele><time>2014-5-30T11:52:6Z</time></trkpt>
<trkpt lat="50.80495690" lon="2.99259000"><ele></ele><time>2014-5-30T11:52:9Z</time></trkpt>
<trkpt lat="50.80498150" lon="2.99303290"><ele></ele><time>2014-5-30T11:52:12Z</time></trkpt>
<trkpt lat="50.80530320" lon="2.99349410"><ele></ele><time>2014-5-30T11:52:15Z</time></trkpt>
<trkpt lat="50.80587500" lon="2.99381720"><ele></ele><time>2014-5-30T11:52:18Z</time></trkpt>
<trkpt lat="50.80624610" lon="2.99437610"><ele></ele><time>2014-5-30T11:52:21Z</time></trkpt>
<trkpt lat="50.80639050" lon="2.99480930"><ele></ele><time>2014-5-30T11:52:24Z</time></trkpt>
<trkpt lat="50.80658640" lon="2.99516010"><ele></ele><time>2014-5-30T11:52:27Z</time></trkpt>
<trkpt lat="50.80709460" lon="2.99582700"><ele></ele><time>2014-5-30T11:52:30Z</time></trkpt>
<trkpt lat="50.80725420" lon="2.99641280"><ele></ele><time>2014-5-30T11:52:33Z</time></trkpt>
<trkpt lat="50.80732600" lon="2.99705940"><ele></ele><time>2014-5-30T11:52:36Z</time></trkpt>
<trkpt lat="50.80736670" lon="2.99736750"><ele></ele><time>2014-5-30T11:52:39Z</time></trkpt>
<trkpt lat="50.80735150" lon="2.99735790"><ele></ele><time>2014-5-30T11:52:42Z</time></trkpt>
<trkpt lat="50.80738220" lon="2.99729850"><ele></ele><time>2014-5-30T11:52:45Z</time></trkpt>
<trkpt lat="50.80711010" lon="2.99756800"><ele></ele><time>2014-5-30T11:52:48Z</time></trkpt>
<trkpt lat="50.80692510" lon="2.99772260"><ele></ele><time>2014-5-30T11:52:51Z</time></trkpt>
<trkpt lat="50.80685320" lon="2.99795350"><ele></ele><time>2014-5-30T11:52:54Z</time></trkpt>
<trkpt lat="50.80689530" lon="2.99833330"><ele></ele><time>2014-5-30T11:52:57Z</time></trkpt>
<trkpt lat="50.80683290" lon="2.99859750"><ele></ele><time>2014-5-30T11:53:0Z</time></trkpt>
<trkpt lat="50.80656650" lon="2.99878400"><ele></ele><time>2014-5-30T11:53:3Z</time></trkpt>
<trkpt lat="50.80644840" lon="2.99891960"><ele></ele><time>2014-5-30T11:53:6Z</time></trkpt>
<trkpt lat="50.80627590" lon="2.99953350"><ele></ele><time>2014-5-30T11:53:9Z</time></trkpt>
<trkpt lat="50.80634870" lon="2.99993340"><ele></ele><time>2014-5-30T11:53:12Z</time></trkpt>
<trkpt lat="50.80660530" lon="3.00077310"><ele></ele><time>2014-5-30T11:53:15Z</time></trkpt>
<trkpt lat="50.80661770" lon="3.00081250"><ele></ele><time>2014-5-30T11:53:18Z</time></trkpt>
<trkpt lat="50.80680190" lon="3.00180680"><ele></ele><time>2014-5-30T11:53:21Z</time></trkpt>
<trkpt lat="50.80684780" lon="3.00204880"><ele></ele><time>2014-5-30T11:53:24Z</time></trkpt>
<trkpt lat="50.80689530" lon="3.00228600"><ele></ele><time>2014-5-30T11:53:27Z</time></trkpt>
<trkpt lat="50.80697570" lon="3.00250400"><ele></ele><time>2014-5-30T11:53:30Z</time></trkpt>
<trkpt lat="50.80748650" lon="3.00342340"><ele></ele><time>2014-5-30T11:53:33Z</time></trkpt>
<trkpt lat="50.80788730" lon="3.00414480"><ele></ele><time>2014-5-30T11:53:36Z</time></trkpt>
<trkpt lat="50.80824210" lon="3.00488650"><ele></ele><time>2014-5-30T11:53:39Z</time></trkpt>
<trkpt lat="50.80863720" lon="3.00576000"><ele></ele><time>2014-5-30T11:53:42Z</time></trkpt>
<trkpt lat="50.80880060" lon="3.00612120"><ele></ele><time>2014-5-30T11:53:45Z</time></trkpt>
<trkpt lat="50.80896640" lon="3.00599470"><ele></ele><time>2014-5-30T11:53:48Z</time></trkpt>
<trkpt lat="50.80944990" lon="3.00557440"><ele></ele><time>2014-5-30T11:53:51Z</time></trkpt>
<trkpt lat="50.80962500" lon="3.00542220"><ele></ele><time>2014-5-30T11:53:54Z</time></trkpt>
<trkpt lat="50.81027300" lon="3.00468250"><ele></ele><time>2014-5-30T11:53:57Z</time></trkpt>
<trkpt lat="50.81073330" lon="3.00411330"><ele></ele><time>2014-5-30T11:54:0Z</time></trkpt>
<trkpt lat="50.81091700" lon="3.00388610"><ele></ele><time>2014-5-30T11:54:3Z</time></trkpt>
<trkpt lat="50.81124070" lon="3.00348560"><ele></ele><time>2014-5-30T11:54:6Z</time></trkpt>
<trkpt lat="50.81137790" lon="3.00331600"><ele></ele><time>2014-5-30T11:54:9Z</time></trkpt>
<trkpt lat="50.81165290" lon="3.00314880"><ele></ele><time>2014-5-30T11:54:12Z</time></trkpt>
<trkpt lat="50.81176130" lon="3.00309680"><ele></ele><time>2014-5-30T11:54:15Z</time></trkpt>
<trkpt lat="50.81192340" lon="3.00301910"><ele></ele><time>2014-5-30T11:54:18Z</time></trkpt>
<trkpt lat="50.81207320" lon="3.00294710"><ele></ele><time>2014-5-30T11:54:21Z</time></trkpt>
<trkpt lat="50.81248540" lon="3.00274930"><ele></ele><time>2014-5-30T11:54:24Z</time></trkpt>
<trkpt lat="50.81256740" lon="3.00312020"><ele></ele><time>2014-5-30T11:54:27Z</time></trkpt>
<trkpt lat="50.81273490" lon="3.00391600"><ele></ele><time>2014-5-30T11:54:30Z</time></trkpt>
<trkpt lat="50.81281570" lon="3.00429970"><ele></ele><time>2014-5-30T11:54:33Z</time></trkpt>
<trkpt lat="50.81297110" lon="3.00503780"><ele></ele><time>2014-5-30T11:54:36Z</time></trkpt>
<trkpt lat="50.81296970" lon="3.00532820"><ele></ele><time>2014-5-30T11:54:39Z</time></trkpt>
<trkpt lat="50.81294360" lon="3.00538700"><ele></ele><time>2014-5-30T11:54:42Z</time></trkpt>
<trkpt lat="50.81287370" lon="3.00554430"><ele></ele><time>2014-5-30T11:54:45Z</time></trkpt>
<trkpt lat="50.81287920" lon="3.00573510"><ele></ele><time>2014-5-30T11:54:48Z</time></trkpt>
<trkpt lat="50.81311480" lon="3.00644210"><ele></ele><time>2014-5-30T11:54:51Z</time></trkpt>
<trkpt lat="50.81330910" lon="3.00702510"><ele></ele><time>2014-5-30T11:54:54Z</time></trkpt>
<trkpt lat="50.81344740" lon="3.00723010"><ele></ele><time>2014-5-30T11:54:57Z</time></trkpt>
<trkpt lat="50.81407220" lon="3.00813250"><ele></ele><time>2014-5-30T11:55:0Z</time></trkpt>
<trkpt lat="50.81434330" lon="3.00836970"><ele></ele><time>2014-5-30T11:55:3Z</time></trkpt>
<trkpt lat="50.81463820" lon="3.00861920"><ele></ele><time>2014-5-30T11:55:6Z</time></trkpt>
<trkpt lat="50.81484730" lon="3.00875350"><ele></ele><time>2014-5-30T11:55:9Z</time></trkpt>
<trkpt lat="50.81489240" lon="3.00870590"><ele></ele><time>2014-5-30T11:55:12Z</time></trkpt>
<trkpt lat="50.81499290" lon="3.00860020"><ele></ele><time>2014-5-30T11:55:15Z</time></trkpt>
<trkpt lat="50.81543710" lon="3.00813260"><ele></ele><time>2014-5-30T11:55:18Z</time></trkpt>
<trkpt lat="50.81563650" lon="3.00827630"><ele></ele><time>2014-5-30T11:55:21Z</time></trkpt>
<trkpt lat="50.81576310" lon="3.00870670"><ele></ele><time>2014-5-30T11:55:24Z</time></trkpt>
<trkpt lat="50.81582180" lon="3.00887910"><ele></ele><time>2014-5-30T11:55:27Z</time></trkpt>
<trkpt lat="50.81626870" lon="3.00979770"><ele></ele><time>2014-5-30T11:55:30Z</time></trkpt>
<trkpt lat="50.81653860" lon="3.01035280"><ele></ele><time>2014-5-30T11:55:33Z</time></trkpt>
<trkpt lat="50.81701490" lon="3.01135220"><ele></ele><time>2014-5-30T11:55:36Z</time></trkpt>
<trkpt lat="50.81769270" lon="3.01232820"><ele></ele><time>2014-5-30T11:55:39Z</time></trkpt>
<trkpt lat="50.81777800" lon="3.01245110"><ele></ele><time>2014-5-30T11:55:42Z</time></trkpt>
<trkpt lat="50.81789800" lon="3.01247020"><ele></ele><time>2014-5-30T11:55:45Z</time></trkpt>
<trkpt lat="50.81800770" lon="3.01216560"><ele></ele><time>2014-5-30T11:55:48Z</time></trkpt>
<trkpt lat="50.81810560" lon="3.01189320"><ele></ele><time>2014-5-30T11:55:51Z</time></trkpt>
<trkpt lat="50.81823620" lon="3.01153050"><ele></ele><time>2014-5-30T11:55:54Z</time></trkpt>
<trkpt lat="50.81903770" lon="3.01102450"><ele></ele><time>2014-5-30T11:55:57Z</time></trkpt>
<trkpt lat="50.81936920" lon="3.01079930"><ele></ele><time>2014-5-30T11:56:0Z</time></trkpt>
<trkpt lat="50.81975310" lon="3.01036050"><ele></ele><time>2014-5-30T11:56:3Z</time></trkpt>
<trkpt lat="50.82024850" lon="3.01000460"><ele></ele><time>2014-5-30T11:56:6Z</time></trkpt>
<trkpt lat="50.82078450" lon="3.00973660"><ele></ele><time>2014-5-30T11:56:9Z</time></trkpt>
<trkpt lat="50.82100110" lon="3.00962840"><ele></ele><time>2014-5-30T11:56:12Z</time></trkpt>
<trkpt lat="50.82160020" lon="3.00932870"><ele></ele><time>2014-5-30T11:56:15Z</time></trkpt>
<trkpt lat="50.82158850" lon="3.00903680"><ele></ele><time>2014-5-30T11:56:18Z</time></trkpt>
<trkpt lat="50.82178550" lon="3.00864570"><ele></ele><time>2014-5-30T11:56:21Z</time></trkpt>
<trkpt lat="50.82189580" lon="3.00848810"><ele></ele><time>2014-5-30T11:56:24Z</time></trkpt>
<trkpt lat="50.82225210" lon="3.00797910"><ele></ele><time>2014-5-30T11:56:27Z</time></trkpt>
<trkpt lat="50.82280990" lon="3.00779470"><ele></ele><time>2014-5-30T11:56:30Z</time></trkpt>
<trkpt lat="50.82287720" lon="3.00772740"><ele></ele><time>2014-5-30T11:56:33Z</time></trkpt>
<trkpt lat="50.82402650" lon="3.00655360"><ele></ele><time>2014-5-30T11:56:36Z</time></trkpt>
<trkpt lat="50.82476610" lon="3.00584680"><ele></ele><time>2014-5-30T11:56:39Z</time></trkpt>
<trkpt lat="50.82546500" lon="3.00517900"><ele></ele><time>2014-5-30T11:56:42Z</time></trkpt>
<trkpt lat="50.82576560" lon="3.00499300"><ele></ele><time>2014-5-30T11:56:45Z</time></trkpt>
<trkpt lat="50.82673630" lon="3.00449240"><ele></ele><time>2014-5-30T11:56:48Z</time></trkpt>
<trkpt lat="50.82686290" lon="3.00442660"><ele></ele><time>2014-5-30T11:56:51Z</time></trkpt>
<trkpt lat="50.82703930" lon="3.00433470"><ele></ele><time>2014-5-30T11:56:54Z</time></trkpt>
<trkpt lat="50.82786440" lon="3.00341020"><ele></ele><time>2014-5-30T11:56:57Z</time></trkpt>
<trkpt lat="50.82852550" lon="3.00253450"><ele></ele><time>2014-5-30T11:57:0Z</time></trkpt>
<trkpt lat="50.82914000" lon="3.00108440"><ele></ele><time>2014-5-30T11:57:3Z</time></trkpt>
<trkpt lat="50.82933190" lon="3.00063160"><ele></ele><time>2014-5-30T11:57:6Z</time></trkpt>
<trkpt lat="50.82972660" lon="2.99937810"><ele></ele><time>2014-5-30T11:57:9Z</time></trkpt>
<trkpt lat="50.82990700" lon="2.99879690"><ele></ele><time>2014-5-30T11:57:12Z</time></trkpt>
<trkpt lat="50.82997110" lon="2.99859040"><ele></ele><time>2014-5-30T11:57:15Z</time></trkpt>
<trkpt lat="50.83004110" lon="2.99836480"><ele></ele><time>2014-5-30T11:57:18Z</time></trkpt>
<trkpt lat="50.83052370" lon="2.99701080"><ele></ele><time>2014-5-30T11:57:21Z</time></trkpt>
<trkpt lat="50.83107000" lon="2.99576740"><ele></ele><time>2014-5-30T11:57:24Z</time></trkpt>
<trkpt lat="50.83147500" lon="2.99532170"><ele></ele><time>2014-5-30T11:57:27Z</time></trkpt>
<trkpt lat="50.83246300" lon="2.99455330"><ele></ele><time>2014-5-30T11:57:30Z</time></trkpt>
<trkpt lat="50.83262080" lon="2.99442830"><ele></ele><time>2014-5-30T11:57:33Z</time></trkpt>
<trkpt lat="50.83257260" lon="2.99438060"><ele></ele><time>2014-5-30T11:57:36Z</time></trkpt>
<trkpt lat="50.83229440" lon="2.99355890"><ele></ele><time>2014-5-30T11:57:39Z</time></trkpt>
<trkpt lat="50.83258000" lon="2.99328440"><ele></ele><time>2014-5-30T11:57:42Z</time></trkpt>
<trkpt lat="50.83263740" lon="2.99323970"><ele></ele><time>2014-5-30T11:57:45Z</time></trkpt>
<trkpt lat="50.83260230" lon="2.99305390"><ele></ele><time>2014-5-30T11:57:48Z</time></trkpt>
<trkpt lat="50.83277610" lon="2.99265170"><ele></ele><time>2014-5-30T11:57:51Z</time></trkpt>
<trkpt lat="50.83269200" lon="2.99248840"><ele></ele><time>2014-5-30T11:57:54Z</time></trkpt>
<trkpt lat="50.83195670" lon="2.99158980"><ele></ele><time>2014-5-30T11:57:57Z</time></trkpt>
<trkpt lat="50.83157780" lon="2.99116950"><ele></ele><time>2014-5-30T11:58:0Z</time></trkpt>
<trkpt lat="50.83146220" lon="2.99088700"><ele></ele><time>2014-5-30T11:58:3Z</time></trkpt>
<trkpt lat="50.83131320" lon="2.99037590"><ele></ele><time>2014-5-30T11:58:6Z</time></trkpt>
<trkpt lat="50.83121750" lon="2.99004810"><ele></ele><time>2014-5-30T11:58:9Z</time></trkpt>
<trkpt lat="50.83119100" lon="2.98995690"><ele></ele><time>2014-5-30T11:58:12Z</time></trkpt>
<trkpt lat="50.83118640" lon="2.98994110"><ele></ele><time>2014-5-30T11:58:15Z</time></trkpt>
<trkpt lat="50.83128580" lon="2.98982750"><ele></ele><time>2014-5-30T11:58:18Z</time></trkpt>
<trkpt lat="50.83177750" lon="2.98965720"><ele></ele><time>2014-5-30T11:58:21Z</time></trkpt>
<trkpt lat="50.83246240" lon="2.98933790"><ele></ele><time>2014-5-30T11:58:24Z</time></trkpt>
<trkpt lat="50.83304000" lon="2.98888730"><ele></ele><time>2014-5-30T11:58:27Z</time></trkpt>
<trkpt lat="50.83322680" lon="2.98875650"><ele></ele><time>2014-5-30T11:58:30Z</time></trkpt>
<trkpt lat="50.83369250" lon="2.98840710"><ele></ele><time>2014-5-30T11:58:33Z</time></trkpt>
<trkpt lat="50.83383590" lon="2.98829680"><ele></ele><time>2014-5-30T11:58:36Z</time></trkpt>
<trkpt lat="50.83386340" lon="2.98805950"><ele></ele><time>2014-5-30T11:58:39Z</time></trkpt>
<trkpt lat="50.83341330" lon="2.98639750"><ele></ele><time>2014-5-30T11:58:42Z</time></trkpt>
<trkpt lat="50.83318650" lon="2.98550850"><ele></ele><time>2014-5-30T11:58:45Z</time></trkpt>
<trkpt lat="50.83290520" lon="2.98453410"><ele></ele><time>2014-5-30T11:58:48Z</time></trkpt>
<trkpt lat="50.83256970" lon="2.98308010"><ele></ele><time>2014-5-30T11:58:51Z</time></trkpt>
<trkpt lat="50.83230000" lon="2.98191130"><ele></ele><time>2014-5-30T11:58:54Z</time></trkpt>
<trkpt lat="50.83224630" lon="2.98167890"><ele></ele><time>2014-5-30T11:58:57Z</time></trkpt>
<trkpt lat="50.83218810" lon="2.98145770"><ele></ele><time>2014-5-30T11:59:0Z</time></trkpt>
<trkpt lat="50.83207820" lon="2.98145770"><ele></ele><time>2014-5-30T11:59:3Z</time></trkpt>
<trkpt lat="50.83188440" lon="2.98145770"><ele></ele><time>2014-5-30T11:59:6Z</time></trkpt>
<trkpt lat="50.83183560" lon="2.98138510"><ele></ele><time>2014-5-30T11:59:9Z</time></trkpt>
<trkpt lat="50.83173890" lon="2.98089910"><ele></ele><time>2014-5-30T11:59:12Z</time></trkpt>
<trkpt lat="50.83176500" lon="2.98061160"><ele></ele><time>2014-5-30T11:59:15Z</time></trkpt>
<trkpt lat="50.83183410" lon="2.97985140"><ele></ele><time>2014-5-30T11:59:18Z</time></trkpt>
<trkpt lat="50.83189420" lon="2.97919050"><ele></ele><time>2014-5-30T11:59:21Z</time></trkpt>
<trkpt lat="50.83193780" lon="2.97856010"><ele></ele><time>2014-5-30T11:59:24Z</time></trkpt>
<trkpt lat="50.83193780" lon="2.97823790"><ele></ele><time>2014-5-30T11:59:27Z</time></trkpt>
<trkpt lat="50.83194300" lon="2.97803490"><ele></ele><time>2014-5-30T11:59:30Z</time></trkpt>
<trkpt lat="50.83197700" lon="2.97698230"><ele></ele><time>2014-5-30T11:59:33Z</time></trkpt>
<trkpt lat="50.83197950" lon="2.97690230"><ele></ele><time>2014-5-30T11:59:36Z</time></trkpt>
<trkpt lat="50.83198150" lon="2.97646340"><ele></ele><time>2014-5-30T11:59:39Z</time></trkpt>
<trkpt lat="50.83163190" lon="2.97634290"><ele></ele><time>2014-5-30T11:59:42Z</time></trkpt>
<trkpt lat="50.83109210" lon="2.97615670"><ele></ele><time>2014-5-30T11:59:45Z</time></trkpt>
<trkpt lat="50.82999280" lon="2.97547090"><ele></ele><time>2014-5-30T11:59:48Z</time></trkpt>
<trkpt lat="50.82988980" lon="2.97540090"><ele></ele><time>2014-5-30T11:59:51Z</time></trkpt>
<trkpt lat="50.82986160" lon="2.97501760"><ele></ele><time>2014-5-30T11:59:54Z</time></trkpt>
<trkpt lat="50.82990100" lon="2.97450580"><ele></ele><time>2014-5-30T11:59:57Z</time></trkpt>
<trkpt lat="50.82991910" lon="2.97417830"><ele></ele><time>2014-5-30T12:0:0Z</time></trkpt>
<trkpt lat="50.82991030" lon="2.97380020"><ele></ele><time>2014-5-30T12:0:3Z</time></trkpt>
<trkpt lat="50.82990080" lon="2.97339330"><ele></ele><time>2014-5-30T12:0:6Z</time></trkpt>
<trkpt lat="50.82988180" lon="2.97257330"><ele></ele><time>2014-5-30T12:0:9Z</time></trkpt>
<trkpt lat="50.82979810" lon="2.97177610"><ele></ele><time>2014-5-30T12:0:12Z</time></trkpt>
<trkpt lat="50.82961370" lon="2.97032750"><ele></ele><time>2014-5-30T12:0:15Z</time></trkpt>
<trkpt lat="50.82959560" lon="2.97018560"><ele></ele><time>2014-5-30T12:0:18Z</time></trkpt>
<trkpt lat="50.82980180" lon="2.96892050"><ele></ele><time>2014-5-30T12:0:21Z</time></trkpt>
<trkpt lat="50.82990840" lon="2.96838710"><ele></ele><time>2014-5-30T12:0:24Z</time></trkpt>
<trkpt lat="50.83012900" lon="2.96804800"><ele></ele><time>2014-5-30T12:0:27Z</time></trkpt>
<trkpt lat="50.83012500" lon="2.96798170"><ele></ele><time>2014-5-30T12:0:30Z</time></trkpt>
<trkpt lat="50.83005940" lon="2.96690040"><ele></ele><time>2014-5-30T12:0:33Z</time></trkpt>
<trkpt lat="50.83005330" lon="2.96679890"><ele></ele><time>2014-5-30T12:0:36Z</time></trkpt>
<trkpt lat="50.82964830" lon="2.96681790"><ele></ele><time>2014-5-30T12:0:39Z</time></trkpt>
<trkpt lat="50.82939350" lon="2.96686880"><ele></ele><time>2014-5-30T12:0:42Z</time></trkpt>
<trkpt lat="50.82905220" lon="2.96693700"><ele></ele><time>2014-5-30T12:0:45Z</time></trkpt>
<trkpt lat="50.82862670" lon="2.96702220"><ele></ele><time>2014-5-30T12:0:48Z</time></trkpt>
<trkpt lat="50.82850560" lon="2.96704650"><ele></ele><time>2014-5-30T12:0:51Z</time></trkpt>
<trkpt lat="50.82840730" lon="2.96706620"><ele></ele><time>2014-5-30T12:0:54Z</time></trkpt>
<trkpt lat="50.82787470" lon="2.96716120"><ele></ele><time>2014-5-30T12:0:57Z</time></trkpt>
<trkpt lat="50.82760990" lon="2.96710810"><ele></ele><time>2014-5-30T12:1:0Z</time></trkpt>
<trkpt lat="50.82735300" lon="2.96717400"><ele></ele><time>2014-5-30T12:1:3Z</time></trkpt>
<trkpt lat="50.82712360" lon="2.96734940"><ele></ele><time>2014-5-30T12:1:6Z</time></trkpt>
<trkpt lat="50.82694460" lon="2.96748630"><ele></ele><time>2014-5-30T12:1:9Z</time></trkpt>
<trkpt lat="50.82606550" lon="2.96814880"><ele></ele><time>2014-5-30T12:1:12Z</time></trkpt>
<trkpt lat="50.82573970" lon="2.96830240"><ele></ele><time>2014-5-30T12:1:15Z</time></trkpt>
<trkpt lat="50.82541680" lon="2.96834550"><ele></ele><time>2014-5-30T12:1:18Z</time></trkpt>
<trkpt lat="50.82524600" lon="2.96832960"><ele></ele><time>2014-5-30T12:1:21Z</time></trkpt>
<trkpt lat="50.82525520" lon="2.96820970"><ele></ele><time>2014-5-30T12:1:24Z</time></trkpt>
<trkpt lat="50.82526900" lon="2.96803140"><ele></ele><time>2014-5-30T12:1:27Z</time></trkpt>
<trkpt lat="50.82536440" lon="2.96679000"><ele></ele><time>2014-5-30T12:1:30Z</time></trkpt>
<trkpt lat="50.82542150" lon="2.96611060"><ele></ele><time>2014-5-30T12:1:33Z</time></trkpt>
<trkpt lat="50.82579720" lon="2.96467840"><ele></ele><time>2014-5-30T12:1:36Z</time></trkpt>
<trkpt lat="50.82586700" lon="2.96441240"><ele></ele><time>2014-5-30T12:1:39Z</time></trkpt>
<trkpt lat="50.82622790" lon="2.96311990"><ele></ele><time>2014-5-30T12:1:42Z</time></trkpt>
<trkpt lat="50.82659460" lon="2.96196350"><ele></ele><time>2014-5-30T12:1:45Z</time></trkpt>
<trkpt lat="50.82665920" lon="2.96161040"><ele></ele><time>2014-5-30T12:1:48Z</time></trkpt>
<trkpt lat="50.82665920" lon="2.96083320"><ele></ele><time>2014-5-30T12:1:51Z</time></trkpt>
<trkpt lat="50.82665920" lon="2.96058430"><ele></ele><time>2014-5-30T12:1:54Z</time></trkpt>
<trkpt lat="50.82668030" lon="2.96032370"><ele></ele><time>2014-5-30T12:1:57Z</time></trkpt>
<trkpt lat="50.82674740" lon="2.95998850"><ele></ele><time>2014-5-30T12:2:0Z</time></trkpt>
<trkpt lat="50.82681920" lon="2.95968550"><ele></ele><time>2014-5-30T12:2:3Z</time></trkpt>
<trkpt lat="50.82687800" lon="2.95949740"><ele></ele><time>2014-5-30T12:2:6Z</time></trkpt>
<trkpt lat="50.82714960" lon="2.95888860"><ele></ele><time>2014-5-30T12:2:9Z</time></trkpt>
<trkpt lat="50.82740280" lon="2.95850320"><ele></ele><time>2014-5-30T12:2:12Z</time></trkpt>
<trkpt lat="50.82755180" lon="2.95827190"><ele></ele><time>2014-5-30T12:2:15Z</time></trkpt>
<trkpt lat="50.82777220" lon="2.95792310"><ele></ele><time>2014-5-30T12:2:18Z</time></trkpt>
<trkpt lat="50.82780370" lon="2.95730740"><ele></ele><time>2014-5-30T12:2:21Z</time></trkpt>
<trkpt lat="50.82773240" lon="2.95724420"><ele></ele><time>2014-5-30T12:2:24Z</time></trkpt>
<trkpt lat="50.82748310" lon="2.95718570"><ele></ele><time>2014-5-30T12:2:27Z</time></trkpt>
<trkpt lat="50.82730530" lon="2.95720550"><ele></ele><time>2014-5-30T12:2:30Z</time></trkpt>
<trkpt lat="50.82711170" lon="2.95722710"><ele></ele><time>2014-5-30T12:2:33Z</time></trkpt>
<trkpt lat="50.82678960" lon="2.95726280"><ele></ele><time>2014-5-30T12:2:36Z</time></trkpt>
<trkpt lat="50.82656150" lon="2.95728820"><ele></ele><time>2014-5-30T12:2:39Z</time></trkpt>
<trkpt lat="50.82592340" lon="2.95683610"><ele></ele><time>2014-5-30T12:2:42Z</time></trkpt>
<trkpt lat="50.82590300" lon="2.95679140"><ele></ele><time>2014-5-30T12:2:45Z</time></trkpt>
<trkpt lat="50.82593300" lon="2.95631140"><ele></ele><time>2014-5-30T12:2:48Z</time></trkpt>
<trkpt lat="50.82601030" lon="2.95616200"><ele></ele><time>2014-5-30T12:2:51Z</time></trkpt>
<trkpt lat="50.82621780" lon="2.95576080"><ele></ele><time>2014-5-30T12:2:54Z</time></trkpt>
<trkpt lat="50.82630500" lon="2.95559220"><ele></ele><time>2014-5-30T12:2:57Z</time></trkpt>
<trkpt lat="50.82640460" lon="2.95539970"><ele></ele><time>2014-5-30T12:3:0Z</time></trkpt>
<trkpt lat="50.82640140" lon="2.95540590"><ele></ele><time>2014-5-30T12:3:3Z</time></trkpt>
<trkpt lat="50.82641120" lon="2.95538700"><ele></ele><time>2014-5-30T12:3:6Z</time></trkpt>
<trkpt lat="50.82640670" lon="2.95539560"><ele></ele><time>2014-5-30T12:3:9Z</time></trkpt>
<trkpt lat="50.82720700" lon="2.95382710"><ele></ele><time>2014-5-30T12:3:12Z</time></trkpt>
<trkpt lat="50.82734020" lon="2.95357390"><ele></ele><time>2014-5-30T12:3:15Z</time></trkpt>
<trkpt lat="50.82772470" lon="2.95282890"><ele></ele><time>2014-5-30T12:3:18Z</time></trkpt>
<trkpt lat="50.82792550" lon="2.95244180"><ele></ele><time>2014-5-30T12:3:21Z</time></trkpt>
<trkpt lat="50.82830140" lon="2.95179420"><ele></ele><time>2014-5-30T12:3:24Z</time></trkpt>
<trkpt lat="50.82872850" lon="2.95107670"><ele></ele><time>2014-5-30T12:3:27Z</time></trkpt>
<trkpt lat="50.82885030" lon="2.95087210"><ele></ele><time>2014-5-30T12:3:30Z</time></trkpt>
<trkpt lat="50.82897600" lon="2.95066100"><ele></ele><time>2014-5-30T12:3:33Z</time></trkpt>
<trkpt lat="50.82913000" lon="2.95060900"><ele></ele><time>2014-5-30T12:3:36Z</time></trkpt>
<trkpt lat="50.82933040" lon="2.95088530"><ele></ele><time>2014-5-30T12:3:39Z</time></trkpt>
<trkpt lat="50.82973910" lon="2.95144920"><ele></ele><time>2014-5-30T12:3:42Z</time></trkpt>
<trkpt lat="50.82982320" lon="2.95156510"><ele></ele><time>2014-5-30T12:3:45Z</time></trkpt>
<trkpt lat="50.83028060" lon="2.95219610"><ele></ele><time>2014-5-30T12:3:48Z</time></trkpt>
<trkpt lat="50.83054740" lon="2.95270810"><ele></ele><time>2014-5-30T12:3:51Z</time></trkpt>
<trkpt lat="50.83051320" lon="2.95286980"><ele></ele><time>2014-5-30T12:3:54Z</time></trkpt>
<trkpt lat="50.83025670" lon="2.95330010"><ele></ele><time>2014-5-30T12:3:57Z</time></trkpt>
<trkpt lat="50.82997640" lon="2.95392080"><ele></ele><time>2014-5-30T12:4:0Z</time></trkpt>
<trkpt lat="50.82960070" lon="2.95469630"><ele></ele><time>2014-5-30T12:4:3Z</time></trkpt>
<trkpt lat="50.82905610" lon="2.95566450"><ele></ele><time>2014-5-30T12:4:6Z</time></trkpt>
<trkpt lat="50.82872790" lon="2.95616670"><ele></ele><time>2014-5-30T12:4:9Z</time></trkpt>
<trkpt lat="50.82859060" lon="2.95649130"><ele></ele><time>2014-5-30T12:4:12Z</time></trkpt>
<trkpt lat="50.82845300" lon="2.95673200"><ele></ele><time>2014-5-30T12:4:15Z</time></trkpt>
<trkpt lat="50.82828640" lon="2.95702350"><ele></ele><time>2014-5-30T12:4:18Z</time></trkpt>
<trkpt lat="50.82816040" lon="2.95724410"><ele></ele><time>2014-5-30T12:4:21Z</time></trkpt>
<trkpt lat="50.82854440" lon="2.95754630"><ele></ele><time>2014-5-30T12:4:24Z</time></trkpt>
<trkpt lat="50.82912260" lon="2.95766450"><ele></ele><time>2014-5-30T12:4:27Z</time></trkpt>
<trkpt lat="50.82947410" lon="2.95773640"><ele></ele><time>2014-5-30T12:4:30Z</time></trkpt>
<trkpt lat="50.83006430" lon="2.95785430"><ele></ele><time>2014-5-30T12:4:33Z</time></trkpt>
<trkpt lat="50.83018100" lon="2.95785430"><ele></ele><time>2014-5-30T12:4:36Z</time></trkpt>
<trkpt lat="50.83077870" lon="2.95762460"><ele></ele><time>2014-5-30T12:4:39Z</time></trkpt>
<trkpt lat="50.83119350" lon="2.95740240"><ele></ele><time>2014-5-30T12:4:42Z</time></trkpt>
<trkpt lat="50.83140040" lon="2.95729150"><ele></ele><time>2014-5-30T12:4:45Z</time></trkpt>
<trkpt lat="50.83156160" lon="2.95700870"><ele></ele><time>2014-5-30T12:4:48Z</time></trkpt>
<trkpt lat="50.83162790" lon="2.95591690"><ele></ele><time>2014-5-30T12:4:51Z</time></trkpt>
<trkpt lat="50.83164860" lon="2.95572530"><ele></ele><time>2014-5-30T12:4:54Z</time></trkpt>
<trkpt lat="50.83178210" lon="2.95490510"><ele></ele><time>2014-5-30T12:4:57Z</time></trkpt>
<trkpt lat="50.83188630" lon="2.95426510"><ele></ele><time>2014-5-30T12:5:0Z</time></trkpt>
<trkpt lat="50.83191490" lon="2.95408950"><ele></ele><time>2014-5-30T12:5:3Z</time></trkpt>
<trkpt lat="50.83183750" lon="2.95372250"><ele></ele><time>2014-5-30T12:5:6Z</time></trkpt>
<trkpt lat="50.83178170" lon="2.95359620"><ele></ele><time>2014-5-30T12:5:9Z</time></trkpt>
<trkpt lat="50.83157750" lon="2.95313430"><ele></ele><time>2014-5-30T12:5:12Z</time></trkpt>
<trkpt lat="50.83117230" lon="2.95221830"><ele></ele><time>2014-5-30T12:5:15Z</time></trkpt>
<trkpt lat="50.83102860" lon="2.95189350"><ele></ele><time>2014-5-30T12:5:18Z</time></trkpt>
<trkpt lat="50.83102430" lon="2.95154080"><ele></ele><time>2014-5-30T12:5:21Z</time></trkpt>
<trkpt lat="50.83150120" lon="2.95007280"><ele></ele><time>2014-5-30T12:5:24Z</time></trkpt>
<trkpt lat="50.83152820" lon="2.94998200"><ele></ele><time>2014-5-30T12:5:27Z</time></trkpt>
<trkpt lat="50.83178980" lon="2.94983370"><ele></ele><time>2014-5-30T12:5:30Z</time></trkpt>
<trkpt lat="50.83183450" lon="2.94989780"><ele></ele><time>2014-5-30T12:5:33Z</time></trkpt>
<trkpt lat="50.83221860" lon="2.95044980"><ele></ele><time>2014-5-30T12:5:36Z</time></trkpt>
<trkpt lat="50.83247150" lon="2.95044170"><ele></ele><time>2014-5-30T12:5:39Z</time></trkpt>
<trkpt lat="50.83339690" lon="2.94939990"><ele></ele><time>2014-5-30T12:5:42Z</time></trkpt>
<trkpt lat="50.83339690" lon="2.94939990"><ele></ele><time>2014-5-30T12:5:45Z</time></trkpt>
<trkpt lat="50.83362050" lon="2.94905290"><ele></ele><time>2014-5-30T12:5:48Z</time></trkpt>
<trkpt lat="50.83387170" lon="2.94820530"><ele></ele><time>2014-5-30T12:5:51Z</time></trkpt>
<trkpt lat="50.83389100" lon="2.94814000"><ele></ele><time>2014-5-30T12:5:54Z</time></trkpt>
<trkpt lat="50.83400600" lon="2.94805900"><ele></ele><time>2014-5-30T12:5:57Z</time></trkpt>
<trkpt lat="50.83450370" lon="2.94800360"><ele></ele><time>2014-5-30T12:6:0Z</time></trkpt>
<trkpt lat="50.83500980" lon="2.94794750"><ele></ele><time>2014-5-30T12:6:3Z</time></trkpt>
<trkpt lat="50.83535410" lon="2.94790930"><ele></ele><time>2014-5-30T12:6:6Z</time></trkpt>
<trkpt lat="50.83540550" lon="2.94790360"><ele></ele><time>2014-5-30T12:6:9Z</time></trkpt>
<trkpt lat="50.83543970" lon="2.94735270"><ele></ele><time>2014-5-30T12:6:12Z</time></trkpt>
<trkpt lat="50.83556940" lon="2.94716840"><ele></ele><time>2014-5-30T12:6:15Z</time></trkpt>
<trkpt lat="50.83591460" lon="2.94704900"><ele></ele><time>2014-5-30T12:6:18Z</time></trkpt>
<trkpt lat="50.83598870" lon="2.94701810"><ele></ele><time>2014-5-30T12:6:21Z</time></trkpt>
<trkpt lat="50.83606860" lon="2.94698500"><ele></ele><time>2014-5-30T12:6:24Z</time></trkpt>
<trkpt lat="50.83651050" lon="2.94656370"><ele></ele><time>2014-5-30T12:6:27Z</time></trkpt>
<trkpt lat="50.83666700" lon="2.94638870"><ele></ele><time>2014-5-30T12:6:30Z</time></trkpt>
<trkpt lat="50.83766510" lon="2.94525430"><ele></ele><time>2014-5-30T12:6:33Z</time></trkpt>
<trkpt lat="50.83832870" lon="2.94440140"><ele></ele><time>2014-5-30T12:6:36Z</time></trkpt>
<trkpt lat="50.83838260" lon="2.94430050"><ele></ele><time>2014-5-30T12:6:39Z</time></trkpt>
<trkpt lat="50.83854360" lon="2.94399860"><ele></ele><time>2014-5-30T12:6:42Z</time></trkpt>
<trkpt lat="50.83884410" lon="2.94263730"><ele></ele><time>2014-5-30T12:6:45Z</time></trkpt>
<trkpt lat="50.83913390" lon="2.94089900"><ele></ele><time>2014-5-30T12:6:48Z</time></trkpt>
<trkpt lat="50.83937820" lon="2.93943370"><ele></ele><time>2014-5-30T12:6:51Z</time></trkpt>
<trkpt lat="50.83953100" lon="2.93903480"><ele></ele><time>2014-5-30T12:6:54Z</time></trkpt>
<trkpt lat="50.83980530" lon="2.93851850"><ele></ele><time>2014-5-30T12:6:57Z</time></trkpt>
<trkpt lat="50.83977780" lon="2.93823160"><ele></ele><time>2014-5-30T12:7:0Z</time></trkpt>
<trkpt lat="50.83961810" lon="2.93801900"><ele></ele><time>2014-5-30T12:7:3Z</time></trkpt>
<trkpt lat="50.83950900" lon="2.93758260"><ele></ele><time>2014-5-30T12:7:6Z</time></trkpt>
<trkpt lat="50.83944620" lon="2.93604050"><ele></ele><time>2014-5-30T12:7:9Z</time></trkpt>
<trkpt lat="50.83938880" lon="2.93560120"><ele></ele><time>2014-5-30T12:7:12Z</time></trkpt>
<trkpt lat="50.83901660" lon="2.93550590"><ele></ele><time>2014-5-30T12:7:15Z</time></trkpt>
<trkpt lat="50.83864100" lon="2.93547840"><ele></ele><time>2014-5-30T12:7:18Z</time></trkpt>
<trkpt lat="50.83861510" lon="2.93511350"><ele></ele><time>2014-5-30T12:7:21Z</time></trkpt>
<trkpt lat="50.83866020" lon="2.93495810"><ele></ele><time>2014-5-30T12:7:24Z</time></trkpt>
<trkpt lat="50.83918080" lon="2.93372880"><ele></ele><time>2014-5-30T12:7:27Z</time></trkpt>
<trkpt lat="50.83981060" lon="2.93224190"><ele></ele><time>2014-5-30T12:7:30Z</time></trkpt>
<trkpt lat="50.84029090" lon="2.93113590"><ele></ele><time>2014-5-30T12:7:33Z</time></trkpt>
<trkpt lat="50.84086320" lon="2.92992810"><ele></ele><time>2014-5-30T12:7:36Z</time></trkpt>
<trkpt lat="50.84090360" lon="2.92984280"><ele></ele><time>2014-5-30T12:7:39Z</time></trkpt>
<trkpt lat="50.84091580" lon="2.92934170"><ele></ele><time>2014-5-30T12:7:42Z</time></trkpt>
<trkpt lat="50.84076470" lon="2.92755850"><ele></ele><time>2014-5-30T12:7:45Z</time></trkpt>
<trkpt lat="50.84074770" lon="2.92735810"><ele></ele><time>2014-5-30T12:7:48Z</time></trkpt>
<trkpt lat="50.84077840" lon="2.92699810"><ele></ele><time>2014-5-30T12:7:51Z</time></trkpt>
<trkpt lat="50.84071020" lon="2.92648660"><ele></ele><time>2014-5-30T12:7:54Z</time></trkpt>
<trkpt lat="50.84045290" lon="2.92594790"><ele></ele><time>2014-5-30T12:7:57Z</time></trkpt>
<trkpt lat="50.83989910" lon="2.92578180"><ele></ele><time>2014-5-30T12:8:0Z</time></trkpt>
<trkpt lat="50.83973350" lon="2.92573210"><ele></ele><time>2014-5-30T12:8:3Z</time></trkpt>
<trkpt lat="50.83919410" lon="2.92557030"><ele></ele><time>2014-5-30T12:8:6Z</time></trkpt>
<trkpt lat="50.83910500" lon="2.92554350"><ele></ele><time>2014-5-30T12:8:9Z</time></trkpt>
<trkpt lat="50.83847360" lon="2.92535140"><ele></ele><time>2014-5-30T12:8:12Z</time></trkpt>
<trkpt lat="50.83797440" lon="2.92508740"><ele></ele><time>2014-5-30T12:8:15Z</time></trkpt>
<trkpt lat="50.83770870" lon="2.92456740"><ele></ele><time>2014-5-30T12:8:18Z</time></trkpt>
<trkpt lat="50.83760260" lon="2.92403700"><ele></ele><time>2014-5-30T12:8:21Z</time></trkpt>
<trkpt lat="50.83748090" lon="2.92346910"><ele></ele><time>2014-5-30T12:8:24Z</time></trkpt>
<trkpt lat="50.83745320" lon="2.92325500"><ele></ele><time>2014-5-30T12:8:27Z</time></trkpt>
<trkpt lat="50.83747980" lon="2.92333520"><ele></ele><time>2014-5-30T12:8:30Z</time></trkpt>
<trkpt lat="50.83739170" lon="2.92347720"><ele></ele><time>2014-5-30T12:8:33Z</time></trkpt>
<trkpt lat="50.83719630" lon="2.92357480"><ele></ele><time>2014-5-30T12:8:36Z</time></trkpt>
<trkpt lat="50.83697470" lon="2.92368560"><ele></ele><time>2014-5-30T12:8:39Z</time></trkpt>
<trkpt lat="50.83672620" lon="2.92367780"><ele></ele><time>2014-5-30T12:8:42Z</time></trkpt>
<trkpt lat="50.83661010" lon="2.92367150"><ele></ele><time>2014-5-30T12:8:45Z</time></trkpt>
<trkpt lat="50.83650240" lon="2.92371770"><ele></ele><time>2014-5-30T12:8:48Z</time></trkpt>
<trkpt lat="50.83622730" lon="2.92370100"><ele></ele><time>2014-5-30T12:8:51Z</time></trkpt>
<trkpt lat="50.83611550" lon="2.92339930"><ele></ele><time>2014-5-30T12:8:54Z</time></trkpt>
<trkpt lat="50.83614240" lon="2.92272160"><ele></ele><time>2014-5-30T12:8:57Z</time></trkpt>
<trkpt lat="50.83616040" lon="2.92248730"><ele></ele><time>2014-5-30T12:9:0Z</time></trkpt>
<trkpt lat="50.83618570" lon="2.92215830"><ele></ele><time>2014-5-30T12:9:3Z</time></trkpt>
<trkpt lat="50.83617890" lon="2.92188150"><ele></ele><time>2014-5-30T12:9:6Z</time></trkpt>
<trkpt lat="50.83617430" lon="2.92171800"><ele></ele><time>2014-5-30T12:9:9Z</time></trkpt>
<trkpt lat="50.83616550" lon="2.92140730"><ele></ele><time>2014-5-30T12:9:12Z</time></trkpt>
<trkpt lat="50.83615530" lon="2.92104740"><ele></ele><time>2014-5-30T12:9:15Z</time></trkpt>
<trkpt lat="50.83615460" lon="2.92102320"><ele></ele><time>2014-5-30T12:9:18Z</time></trkpt>
<trkpt lat="50.83615420" lon="2.92100830"><ele></ele><time>2014-5-30T12:9:21Z</time></trkpt>
<trkpt lat="50.83615420" lon="2.92100830"><ele></ele><time>2014-5-30T12:9:24Z</time></trkpt>
<trkpt lat="50.83615420" lon="2.92100830"><ele></ele><time>2014-5-30T12:9:27Z</time></trkpt>
<trkpt lat="50.83615420" lon="2.92100830"><ele></ele><time>2014-5-30T12:9:30Z</time></trkpt>
</trkseg></trk></gpx>